sensor_id;sensor_type;location;lat;lon;timestamp;P1;durP1;ratioP1;P2;durP2;ratioP2
25503;SDS011;13410;52.114;5.718;2023-06-14T00:00:38;6.75;;;2.97;;
25503;SDS011;13410;52.114;5.718;2023-06-14T00:03:07;5.03;;;3.38;;
25503;SDS011;13410;52.114;5.718;2023-06-14T00:05:34;7.85;;;3.05;;
25503;SDS011;13410;52.114;5.718;2023-06-14T00:08:05;8.77;;;3.30;;
25503;SDS011;13410;52.114;5.718;2023-06-14T00:10:33;5.70;;;3.35;;
25503;SDS011;13410;52.114;5.718;2023-06-14T00:13:00;14.23;;;3.67;;
25503;SDS011;13410;52.114;5.718;2023-06-14T00:15:30;10.32;;;3.42;;
25503;SDS011;13410;52.114;5.718;2023-06-14T00:17:56;5.22;;;3.17;;
25503;SDS011;13410;52.114;5.718;2023-06-14T00:20:24;6.68;;;3.70;;
25503;SDS011;13410;52.114;5.718;2023-06-14T00:22:50;10.85;;;3.50;;
25503;SDS011;13410;52.114;5.718;2023-06-14T00:25:17;10.77;;;3.65;;
25503;SDS011;13410;52.114;5.718;2023-06-14T00:27:42;8.60;;;3.60;;
25503;SDS011;13410;52.114;5.718;2023-06-14T00:30:08;6.45;;;3.28;;
25503;SDS011;13410;52.114;5.718;2023-06-14T00:32:34;5.65;;;3.40;;
25503;SDS011;13410;52.114;5.718;2023-06-14T00:34:59;6.90;;;3.70;;
25503;SDS011;13410;52.114;5.718;2023-06-14T00:37:25;7.80;;;3.13;;
25503;SDS011;13410;52.114;5.718;2023-06-14T00:39:51;8.32;;;3.50;;
25503;SDS011;13410;52.114;5.718;2023-06-14T00:42:23;7.40;;;3.00;;
25503;SDS011;13410;52.114;5.718;2023-06-14T00:44:50;5.55;;;3.20;;
25503;SDS011;13410;52.114;5.718;2023-06-14T00:47:15;11.40;;;4.05;;
25503;SDS011;13410;52.114;5.718;2023-06-14T00:49:41;6.38;;;3.50;;
25503;SDS011;13410;52.114;5.718;2023-06-14T00:52:07;14.70;;;3.42;;
25503;SDS011;13410;52.114;5.718;2023-06-14T00:54:37;6.63;;;3.78;;
25503;SDS011;13410;52.114;5.718;2023-06-14T00:57:06;7.72;;;3.80;;
25503;SDS011;13410;52.114;5.718;2023-06-14T00:59:33;5.90;;;3.58;;
25503;SDS011;13410;52.114;5.718;2023-06-14T01:02:02;5.40;;;3.63;;
25503;SDS011;13410;52.114;5.718;2023-06-14T01:04:28;10.38;;;3.45;;
25503;SDS011;13410;52.114;5.718;2023-06-14T01:07:15;4.55;;;3.10;;
25503;SDS011;13410;52.114;5.718;2023-06-14T01:09:58;6.22;;;3.60;;
25503;SDS011;13410;52.114;5.718;2023-06-14T01:15:04;9.18;;;3.45;;
25503;SDS011;13410;52.114;5.718;2023-06-14T01:17:30;12.32;;;3.47;;
25503;SDS011;13410;52.114;5.718;2023-06-14T01:20:05;10.00;;;4.18;;
25503;SDS011;13410;52.114;5.718;2023-06-14T01:22:35;11.20;;;3.60;;
25503;SDS011;13410;52.114;5.718;2023-06-14T01:25:01;13.75;;;3.30;;
25503;SDS011;13410;52.114;5.718;2023-06-14T01:27:26;6.72;;;3.33;;
25503;SDS011;13410;52.114;5.718;2023-06-14T01:29:53;10.82;;;3.47;;
25503;SDS011;13410;52.114;5.718;2023-06-14T01:32:22;9.43;;;3.42;;
25503;SDS011;13410;52.114;5.718;2023-06-14T01:34:49;6.18;;;3.58;;
25503;SDS011;13410;52.114;5.718;2023-06-14T01:37:15;10.32;;;3.10;;
25503;SDS011;13410;52.114;5.718;2023-06-14T01:39:42;7.18;;;3.38;;
25503;SDS011;13410;52.114;5.718;2023-06-14T01:42:10;9.23;;;3.58;;
25503;SDS011;13410;52.114;5.718;2023-06-14T01:44:37;10.45;;;3.65;;
25503;SDS011;13410;52.114;5.718;2023-06-14T01:47:04;6.65;;;3.10;;
25503;SDS011;13410;52.114;5.718;2023-06-14T01:49:33;10.73;;;3.70;;
25503;SDS011;13410;52.114;5.718;2023-06-14T01:51:59;10.13;;;3.42;;
25503;SDS011;13410;52.114;5.718;2023-06-14T01:54:25;7.18;;;3.20;;
25503;SDS011;13410;52.114;5.718;2023-06-14T01:56:50;8.13;;;3.15;;
25503;SDS011;13410;52.114;5.718;2023-06-14T01:59:16;9.20;;;3.30;;
25503;SDS011;13410;52.114;5.718;2023-06-14T02:01:42;10.73;;;3.40;;
25503;SDS011;13410;52.114;5.718;2023-06-14T02:04:08;8.63;;;3.35;;
25503;SDS011;13410;52.114;5.718;2023-06-14T02:06:33;11.93;;;3.35;;
25503;SDS011;13410;52.114;5.718;2023-06-14T02:09:00;7.47;;;3.22;;
25503;SDS011;13410;52.114;5.718;2023-06-14T02:11:27;7.97;;;3.35;;
25503;SDS011;13410;52.114;5.718;2023-06-14T02:13:53;8.80;;;3.15;;
25503;SDS011;13410;52.114;5.718;2023-06-14T02:16:20;10.77;;;3.42;;
25503;SDS011;13410;52.114;5.718;2023-06-14T02:18:47;6.50;;;3.38;;
25503;SDS011;13410;52.114;5.718;2023-06-14T02:21:13;8.32;;;3.20;;
25503;SDS011;13410;52.114;5.718;2023-06-14T02:23:39;5.30;;;3.67;;
25503;SDS011;13410;52.114;5.718;2023-06-14T02:26:04;13.23;;;3.58;;
25503;SDS011;13410;52.114;5.718;2023-06-14T02:28:30;9.20;;;3.20;;
25503;SDS011;13410;52.114;5.718;2023-06-14T02:30:56;11.23;;;3.22;;
25503;SDS011;13410;52.114;5.718;2023-06-14T02:33:21;8.68;;;3.30;;
25503;SDS011;13410;52.114;5.718;2023-06-14T02:35:47;10.35;;;3.70;;
25503;SDS011;13410;52.114;5.718;2023-06-14T02:38:13;7.78;;;3.50;;
25503;SDS011;13410;52.114;5.718;2023-06-14T02:40:38;6.20;;;3.13;;
25503;SDS011;13410;52.114;5.718;2023-06-14T02:43:05;8.52;;;3.60;;
25503;SDS011;13410;52.114;5.718;2023-06-14T02:45:31;6.60;;;3.40;;
25503;SDS011;13410;52.114;5.718;2023-06-14T02:47:56;6.70;;;3.40;;
25503;SDS011;13410;52.114;5.718;2023-06-14T02:50:22;6.57;;;3.50;;
25503;SDS011;13410;52.114;5.718;2023-06-14T02:52:48;9.95;;;3.22;;
25503;SDS011;13410;52.114;5.718;2023-06-14T02:55:14;6.47;;;3.35;;
25503;SDS011;13410;52.114;5.718;2023-06-14T02:57:39;5.70;;;3.30;;
25503;SDS011;13410;52.114;5.718;2023-06-14T03:00:05;9.32;;;3.72;;
25503;SDS011;13410;52.114;5.718;2023-06-14T03:02:38;7.38;;;3.67;;
25503;SDS011;13410;52.114;5.718;2023-06-14T03:05:03;10.10;;;3.65;;
25503;SDS011;13410;52.114;5.718;2023-06-14T03:07:31;7.15;;;3.95;;
25503;SDS011;13410;52.114;5.718;2023-06-14T03:09:57;8.30;;;3.42;;
25503;SDS011;13410;52.114;5.718;2023-06-14T03:12:23;8.27;;;3.80;;
25503;SDS011;13410;52.114;5.718;2023-06-14T03:14:48;6.00;;;3.33;;
25503;SDS011;13410;52.114;5.718;2023-06-14T03:17:15;5.75;;;3.17;;
25503;SDS011;13410;52.114;5.718;2023-06-14T03:19:42;8.40;;;3.30;;
25503;SDS011;13410;52.114;5.718;2023-06-14T03:22:08;9.85;;;3.63;;
25503;SDS011;13410;52.114;5.718;2023-06-14T03:24:34;9.52;;;3.22;;
25503;SDS011;13410;52.114;5.718;2023-06-14T03:27:01;6.78;;;3.75;;
25503;SDS011;13410;52.114;5.718;2023-06-14T03:29:27;6.80;;;3.42;;
25503;SDS011;13410;52.114;5.718;2023-06-14T03:31:59;7.55;;;3.22;;
25503;SDS011;13410;52.114;5.718;2023-06-14T03:34:26;8.45;;;3.25;;
25503;SDS011;13410;52.114;5.718;2023-06-14T03:36:52;5.70;;;3.13;;
25503;SDS011;13410;52.114;5.718;2023-06-14T03:39:18;6.88;;;3.25;;
25503;SDS011;13410;52.114;5.718;2023-06-14T03:41:44;5.53;;;3.40;;
25503;SDS011;13410;52.114;5.718;2023-06-14T03:44:09;8.32;;;3.05;;
25503;SDS011;13410;52.114;5.718;2023-06-14T03:46:34;9.57;;;3.60;;
25503;SDS011;13410;52.114;5.718;2023-06-14T03:49:00;5.78;;;3.10;;
25503;SDS011;13410;52.114;5.718;2023-06-14T03:51:27;10.77;;;3.13;;
25503;SDS011;13410;52.114;5.718;2023-06-14T03:53:54;10.80;;;3.53;;
25503;SDS011;13410;52.114;5.718;2023-06-14T03:56:20;12.35;;;3.67;;
25503;SDS011;13410;52.114;5.718;2023-06-14T03:58:46;6.18;;;2.90;;
25503;SDS011;13410;52.114;5.718;2023-06-14T04:01:12;8.95;;;3.28;;
25503;SDS011;13410;52.114;5.718;2023-06-14T04:03:37;9.43;;;3.45;;
25503;SDS011;13410;52.114;5.718;2023-06-14T04:06:05;6.07;;;3.60;;
25503;SDS011;13410;52.114;5.718;2023-06-14T04:08:31;6.53;;;3.58;;
25503;SDS011;13410;52.114;5.718;2023-06-14T04:10:56;7.32;;;3.72;;
25503;SDS011;13410;52.114;5.718;2023-06-14T04:13:22;8.95;;;3.63;;
25503;SDS011;13410;52.114;5.718;2023-06-14T04:15:47;8.73;;;3.10;;
25503;SDS011;13410;52.114;5.718;2023-06-14T04:18:13;6.40;;;3.05;;
25503;SDS011;13410;52.114;5.718;2023-06-14T04:20:39;7.43;;;3.30;;
25503;SDS011;13410;52.114;5.718;2023-06-14T04:23:16;7.60;;;3.22;;
25503;SDS011;13410;52.114;5.718;2023-06-14T04:25:46;8.27;;;3.10;;
25503;SDS011;13410;52.114;5.718;2023-06-14T04:28:12;6.32;;;3.30;;
25503;SDS011;13410;52.114;5.718;2023-06-14T04:30:40;8.07;;;3.00;;
25503;SDS011;13410;52.114;5.718;2023-06-14T04:33:06;8.63;;;4.10;;
25503;SDS011;13410;52.114;5.718;2023-06-14T04:35:32;6.50;;;3.38;;
25503;SDS011;13410;52.114;5.718;2023-06-14T04:38:00;11.90;;;3.42;;
25503;SDS011;13410;52.114;5.718;2023-06-14T04:40:26;5.32;;;3.00;;
25503;SDS011;13410;52.114;5.718;2023-06-14T04:42:52;6.28;;;3.20;;
25503;SDS011;13410;52.114;5.718;2023-06-14T04:45:17;5.40;;;3.08;;
25503;SDS011;13410;52.114;5.718;2023-06-14T04:47:43;8.60;;;3.17;;
25503;SDS011;13410;52.114;5.718;2023-06-14T04:50:09;4.95;;;2.90;;
25503;SDS011;13410;52.114;5.718;2023-06-14T04:52:36;9.15;;;3.30;;
25503;SDS011;13410;52.114;5.718;2023-06-14T04:55:02;4.72;;;2.75;;
25503;SDS011;13410;52.114;5.718;2023-06-14T04:57:28;8.70;;;3.13;;
25503;SDS011;13410;52.114;5.718;2023-06-14T04:59:54;5.75;;;2.85;;
25503;SDS011;13410;52.114;5.718;2023-06-14T05:02:23;7.13;;;2.67;;
25503;SDS011;13410;52.114;5.718;2023-06-14T05:04:50;6.90;;;3.42;;
25503;SDS011;13410;52.114;5.718;2023-06-14T05:07:16;5.32;;;3.00;;
25503;SDS011;13410;52.114;5.718;2023-06-14T05:09:42;9.80;;;3.33;;
25503;SDS011;13410;52.114;5.718;2023-06-14T05:12:07;11.65;;;3.13;;
25503;SDS011;13410;52.114;5.718;2023-06-14T05:14:33;7.18;;;3.33;;
25503;SDS011;13410;52.114;5.718;2023-06-14T05:16:59;6.03;;;2.90;;
25503;SDS011;13410;52.114;5.718;2023-06-14T05:19:25;7.68;;;3.05;;
25503;SDS011;13410;52.114;5.718;2023-06-14T05:21:51;7.75;;;3.05;;
25503;SDS011;13410;52.114;5.718;2023-06-14T05:24:17;7.05;;;3.30;;
25503;SDS011;13410;52.114;5.718;2023-06-14T05:26:43;6.70;;;3.35;;
25503;SDS011;13410;52.114;5.718;2023-06-14T05:29:09;5.90;;;3.20;;
25503;SDS011;13410;52.114;5.718;2023-06-14T05:31:34;6.25;;;2.90;;
25503;SDS011;13410;52.114;5.718;2023-06-14T05:34:00;7.00;;;3.25;;
25503;SDS011;13410;52.114;5.718;2023-06-14T05:36:25;5.53;;;2.70;;
25503;SDS011;13410;52.114;5.718;2023-06-14T05:38:52;7.20;;;3.17;;
25503;SDS011;13410;52.114;5.718;2023-06-14T05:41:26;7.85;;;3.30;;
25503;SDS011;13410;52.114;5.718;2023-06-14T05:43:53;8.43;;;3.03;;
25503;SDS011;13410;52.114;5.718;2023-06-14T05:46:19;5.53;;;2.80;;
25503;SDS011;13410;52.114;5.718;2023-06-14T05:48:47;6.40;;;2.85;;
25503;SDS011;13410;52.114;5.718;2023-06-14T05:51:13;5.07;;;2.75;;
25503;SDS011;13410;52.114;5.718;2023-06-14T05:53:39;10.30;;;3.20;;
25503;SDS011;13410;52.114;5.718;2023-06-14T05:56:05;6.32;;;2.80;;
25503;SDS011;13410;52.114;5.718;2023-06-14T05:58:30;8.05;;;2.80;;
25503;SDS011;13410;52.114;5.718;2023-06-14T06:00:56;9.88;;;3.00;;
25503;SDS011;13410;52.114;5.718;2023-06-14T06:03:22;7.55;;;3.53;;
25503;SDS011;13410;52.114;5.718;2023-06-14T06:05:48;5.15;;;2.75;;
25503;SDS011;13410;52.114;5.718;2023-06-14T06:08:13;4.43;;;2.65;;
25503;SDS011;13410;52.114;5.718;2023-06-14T06:10:41;5.93;;;2.78;;
25503;SDS011;13410;52.114;5.718;2023-06-14T06:13:07;9.00;;;2.83;;
25503;SDS011;13410;52.114;5.718;2023-06-14T06:15:32;10.30;;;3.22;;
25503;SDS011;13410;52.114;5.718;2023-06-14T06:17:58;6.65;;;2.92;;
25503;SDS011;13410;52.114;5.718;2023-06-14T06:20:23;6.07;;;2.85;;
25503;SDS011;13410;52.114;5.718;2023-06-14T06:22:53;8.02;;;3.00;;
25503;SDS011;13410;52.114;5.718;2023-06-14T06:25:19;4.63;;;2.90;;
25503;SDS011;13410;52.114;5.718;2023-06-14T06:27:45;7.55;;;2.85;;
25503;SDS011;13410;52.114;5.718;2023-06-14T06:30:11;6.30;;;2.92;;
25503;SDS011;13410;52.114;5.718;2023-06-14T06:32:37;7.97;;;2.78;;
25503;SDS011;13410;52.114;5.718;2023-06-14T06:35:02;5.30;;;2.92;;
25503;SDS011;13410;52.114;5.718;2023-06-14T06:37:31;3.58;;;2.70;;
25503;SDS011;13410;52.114;5.718;2023-06-14T06:39:56;5.78;;;2.83;;
25503;SDS011;13410;52.114;5.718;2023-06-14T06:42:22;5.90;;;2.78;;
25503;SDS011;13410;52.114;5.718;2023-06-14T06:44:47;8.00;;;2.80;;
25503;SDS011;13410;52.114;5.718;2023-06-14T06:47:13;8.15;;;2.95;;
25503;SDS011;13410;52.114;5.718;2023-06-14T06:49:38;8.07;;;2.78;;
25503;SDS011;13410;52.114;5.718;2023-06-14T06:52:05;5.75;;;2.80;;
25503;SDS011;13410;52.114;5.718;2023-06-14T06:54:32;8.48;;;2.95;;
25503;SDS011;13410;52.114;5.718;2023-06-14T06:56:58;3.22;;;2.40;;
25503;SDS011;13410;52.114;5.718;2023-06-14T06:59:24;5.18;;;2.67;;
25503;SDS011;13410;52.114;5.718;2023-06-14T07:01:50;4.68;;;2.42;;
25503;SDS011;13410;52.114;5.718;2023-06-14T07:04:15;6.22;;;2.70;;
25503;SDS011;13410;52.114;5.718;2023-06-14T07:06:42;12.85;;;2.63;;
25503;SDS011;13410;52.114;5.718;2023-06-14T07:09:08;6.43;;;2.65;;
25503;SDS011;13410;52.114;5.718;2023-06-14T07:11:37;4.13;;;2.40;;
25503;SDS011;13410;52.114;5.718;2023-06-14T07:14:03;7.10;;;2.83;;
25503;SDS011;13410;52.114;5.718;2023-06-14T07:16:29;5.05;;;2.50;;
25503;SDS011;13410;52.114;5.718;2023-06-14T07:18:56;5.63;;;2.60;;
25503;SDS011;13410;52.114;5.718;2023-06-14T07:21:22;3.13;;;2.13;;
25503;SDS011;13410;52.114;5.718;2023-06-14T07:23:47;5.82;;;2.75;;
25503;SDS011;13410;52.114;5.718;2023-06-14T07:26:13;4.75;;;2.05;;
25503;SDS011;13410;52.114;5.718;2023-06-14T07:28:39;3.70;;;2.20;;
25503;SDS011;13410;52.114;5.718;2023-06-14T07:31:04;4.40;;;1.90;;
25503;SDS011;13410;52.114;5.718;2023-06-14T07:33:30;6.07;;;2.35;;
25503;SDS011;13410;52.114;5.718;2023-06-14T07:35:55;4.53;;;2.28;;
25503;SDS011;13410;52.114;5.718;2023-06-14T07:38:21;6.47;;;2.30;;
25503;SDS011;13410;52.114;5.718;2023-06-14T07:40:46;5.28;;;2.20;;
25503;SDS011;13410;52.114;5.718;2023-06-14T07:43:12;7.25;;;2.15;;
25503;SDS011;13410;52.114;5.718;2023-06-14T07:45:37;3.83;;;2.00;;
25503;SDS011;13410;52.114;5.718;2023-06-14T07:48:03;9.70;;;1.90;;
25503;SDS011;13410;52.114;5.718;2023-06-14T07:50:29;6.95;;;1.75;;
25503;SDS011;13410;52.114;5.718;2023-06-14T07:52:55;2.85;;;1.80;;
25503;SDS011;13410;52.114;5.718;2023-06-14T07:55:21;5.60;;;1.77;;
25503;SDS011;13410;52.114;5.718;2023-06-14T07:57:47;1.85;;;1.45;;
25503;SDS011;13410;52.114;5.718;2023-06-14T08:00:12;4.65;;;1.52;;
25503;SDS011;13410;52.114;5.718;2023-06-14T08:02:40;5.70;;;1.73;;
25503;SDS011;13410;52.114;5.718;2023-06-14T08:05:08;3.55;;;1.60;;
25503;SDS011;13410;52.114;5.718;2023-06-14T08:07:36;2.58;;;1.38;;
25503;SDS011;13410;52.114;5.718;2023-06-14T08:10:01;2.22;;;1.65;;
25503;SDS011;13410;52.114;5.718;2023-06-14T08:12:28;5.25;;;1.60;;
25503;SDS011;13410;52.114;5.718;2023-06-14T08:14:53;3.83;;;1.35;;
25503;SDS011;13410;52.114;5.718;2023-06-14T08:17:19;5.93;;;1.90;;
25503;SDS011;13410;52.114;5.718;2023-06-14T08:19:44;2.70;;;1.38;;
25503;SDS011;13410;52.114;5.718;2023-06-14T08:22:10;2.22;;;1.30;;
25503;SDS011;13410;52.114;5.718;2023-06-14T08:24:37;3.78;;;1.77;;
25503;SDS011;13410;52.114;5.718;2023-06-14T08:27:02;1.92;;;1.30;;
25503;SDS011;13410;52.114;5.718;2023-06-14T08:29:30;9.43;;;1.50;;
25503;SDS011;13410;52.114;5.718;2023-06-14T08:31:55;4.68;;;1.75;;
25503;SDS011;13410;52.114;5.718;2023-06-14T08:34:21;3.15;;;1.63;;
25503;SDS011;13410;52.114;5.718;2023-06-14T08:36:48;2.25;;;1.50;;
25503;SDS011;13410;52.114;5.718;2023-06-14T08:39:16;4.80;;;1.60;;
25503;SDS011;13410;52.114;5.718;2023-06-14T08:41:46;6.68;;;1.85;;
25503;SDS011;13410;52.114;5.718;2023-06-14T08:44:15;5.68;;;1.90;;
25503;SDS011;13410;52.114;5.718;2023-06-14T08:46:41;5.28;;;1.70;;
25503;SDS011;13410;52.114;5.718;2023-06-14T08:49:07;3.65;;;1.80;;
25503;SDS011;13410;52.114;5.718;2023-06-14T08:51:36;5.55;;;1.75;;
25503;SDS011;13410;52.114;5.718;2023-06-14T08:54:02;3.03;;;2.13;;
25503;SDS011;13410;52.114;5.718;2023-06-14T08:56:29;6.53;;;1.83;;
25503;SDS011;13410;52.114;5.718;2023-06-14T08:58:59;2.47;;;1.75;;
25503;SDS011;13410;52.114;5.718;2023-06-14T09:01:28;5.10;;;1.80;;
25503;SDS011;13410;52.114;5.718;2023-06-14T09:03:54;3.83;;;1.88;;
25503;SDS011;13410;52.114;5.718;2023-06-14T09:06:22;5.93;;;1.65;;
25503;SDS011;13410;52.114;5.718;2023-06-14T09:08:49;5.97;;;1.60;;
25503;SDS011;13410;52.114;5.718;2023-06-14T09:11:16;4.47;;;1.95;;
25503;SDS011;13410;52.114;5.718;2023-06-14T09:13:44;3.17;;;1.90;;
25503;SDS011;13410;52.114;5.718;2023-06-14T09:16:11;3.60;;;1.63;;
25503;SDS011;13410;52.114;5.718;2023-06-14T09:18:43;4.30;;;1.70;;
25503;SDS011;13410;52.114;5.718;2023-06-14T09:21:12;4.18;;;1.80;;
25503;SDS011;13410;52.114;5.718;2023-06-14T09:23:39;5.82;;;1.80;;
25503;SDS011;13410;52.114;5.718;2023-06-14T09:26:10;2.78;;;1.88;;
25503;SDS011;13410;52.114;5.718;2023-06-14T09:31:12;4.97;;;1.60;;
25503;SDS011;13410;52.114;5.718;2023-06-14T09:33:41;7.90;;;1.80;;
25503;SDS011;13410;52.114;5.718;2023-06-14T09:36:13;4.55;;;1.80;;
25503;SDS011;13410;52.114;5.718;2023-06-14T09:43:58;2.13;;;1.70;;
25503;SDS011;13410;52.114;5.718;2023-06-14T09:46:28;5.28;;;1.70;;
25503;SDS011;13410;52.114;5.718;2023-06-14T09:48:55;9.38;;;2.85;;
25503;SDS011;13410;52.114;5.718;2023-06-14T09:51:22;4.22;;;2.20;;
25503;SDS011;13410;52.114;5.718;2023-06-14T09:53:48;4.20;;;1.77;;
25503;SDS011;13410;52.114;5.718;2023-06-14T09:56:16;2.70;;;1.73;;
25503;SDS011;13410;52.114;5.718;2023-06-14T09:58:51;3.72;;;1.50;;
25503;SDS011;13410;52.114;5.718;2023-06-14T10:01:20;3.90;;;1.65;;
25503;SDS011;13410;52.114;5.718;2023-06-14T10:03:47;4.30;;;1.80;;
25503;SDS011;13410;52.114;5.718;2023-06-14T10:06:19;4.18;;;1.60;;
25503;SDS011;13410;52.114;5.718;2023-06-14T10:08:49;4.35;;;1.90;;
25503;SDS011;13410;52.114;5.718;2023-06-14T10:11:17;5.60;;;1.45;;
25503;SDS011;13410;52.114;5.718;2023-06-14T10:13:43;11.48;;;1.70;;
25503;SDS011;13410;52.114;5.718;2023-06-14T10:16:16;4.55;;;1.30;;
25503;SDS011;13410;52.114;5.718;2023-06-14T10:21:18;4.80;;;1.70;;
25503;SDS011;13410;52.114;5.718;2023-06-14T10:24:04;5.15;;;1.80;;
25503;SDS011;13410;52.114;5.718;2023-06-14T10:26:33;2.60;;;1.60;;
25503;SDS011;13410;52.114;5.718;2023-06-14T10:29:00;3.15;;;1.80;;
25503;SDS011;13410;52.114;5.718;2023-06-14T10:34:07;3.40;;;1.55;;
25503;SDS011;13410;52.114;5.718;2023-06-14T10:36:33;2.60;;;1.60;;
25503;SDS011;13410;52.114;5.718;2023-06-14T10:39:18;5.55;;;1.60;;
25503;SDS011;13410;52.114;5.718;2023-06-14T10:41:52;2.42;;;1.75;;
25503;SDS011;13410;52.114;5.718;2023-06-14T10:46:48;12.02;;;1.92;;
25503;SDS011;13410;52.114;5.718;2023-06-14T10:49:18;8.57;;;1.60;;
25503;SDS011;13410;52.114;5.718;2023-06-14T10:51:45;4.18;;;1.88;;
25503;SDS011;13410;52.114;5.718;2023-06-14T10:54:15;4.53;;;1.45;;
25503;SDS011;13410;52.114;5.718;2023-06-14T10:56:51;4.03;;;2.00;;
25503;SDS011;13410;52.114;5.718;2023-06-14T10:59:18;4.43;;;1.80;;
25503;SDS011;13410;52.114;5.718;2023-06-14T11:04:47;16.85;;;1.95;;
25503;SDS011;13410;52.114;5.718;2023-06-14T11:10:22;8.48;;;2.00;;
25503;SDS011;13410;52.114;5.718;2023-06-14T11:13:06;2.38;;;1.40;;
25503;SDS011;13410;52.114;5.718;2023-06-14T11:15:33;14.88;;;1.70;;
25503;SDS011;13410;52.114;5.718;2023-06-14T11:18:00;8.85;;;1.75;;
25503;SDS011;13410;52.114;5.718;2023-06-14T11:20:29;4.03;;;1.40;;
25503;SDS011;13410;52.114;5.718;2023-06-14T11:22:58;3.75;;;1.48;;
25503;SDS011;13410;52.114;5.718;2023-06-14T11:25:25;4.15;;;1.75;;
25503;SDS011;13410;52.114;5.718;2023-06-14T11:27:52;5.78;;;2.17;;
25503;SDS011;13410;52.114;5.718;2023-06-14T11:30:18;4.30;;;1.92;;
25503;SDS011;13410;52.114;5.718;2023-06-14T11:32:48;11.30;;;1.90;;
25503;SDS011;13410;52.114;5.718;2023-06-14T11:35:15;4.82;;;1.52;;
25503;SDS011;13410;52.114;5.718;2023-06-14T11:37:43;9.30;;;2.40;;
25503;SDS011;13410;52.114;5.718;2023-06-14T11:40:12;5.43;;;1.55;;
25503;SDS011;13410;52.114;5.718;2023-06-14T11:42:39;3.22;;;1.50;;
25503;SDS011;13410;52.114;5.718;2023-06-14T11:45:11;11.18;;;2.10;;
25503;SDS011;13410;52.114;5.718;2023-06-14T11:47:38;4.95;;;1.70;;
25503;SDS011;13410;52.114;5.718;2023-06-14T11:50:05;4.07;;;1.75;;
25503;SDS011;13410;52.114;5.718;2023-06-14T11:52:33;3.78;;;1.88;;
25503;SDS011;13410;52.114;5.718;2023-06-14T11:54:58;4.30;;;1.65;;
25503;SDS011;13410;52.114;5.718;2023-06-14T11:57:25;3.40;;;1.75;;
25503;SDS011;13410;52.114;5.718;2023-06-14T11:59:50;6.82;;;1.65;;
25503;SDS011;13410;52.114;5.718;2023-06-14T12:02:17;2.25;;;1.50;;
25503;SDS011;13410;52.114;5.718;2023-06-14T12:04:44;4.95;;;1.50;;
25503;SDS011;13410;52.114;5.718;2023-06-14T12:07:15;2.50;;;1.70;;
25503;SDS011;13410;52.114;5.718;2023-06-14T12:10:04;8.55;;;1.63;;
25503;SDS011;13410;52.114;5.718;2023-06-14T12:12:34;2.13;;;1.48;;
25503;SDS011;13410;52.114;5.718;2023-06-14T12:15:02;6.55;;;1.80;;
25503;SDS011;13410;52.114;5.718;2023-06-14T12:17:33;6.25;;;2.10;;
25503;SDS011;13410;52.114;5.718;2023-06-14T12:20:04;4.10;;;1.80;;
25503;SDS011;13410;52.114;5.718;2023-06-14T12:22:33;7.75;;;2.08;;
25503;SDS011;13410;52.114;5.718;2023-06-14T12:24:59;5.38;;;1.70;;
25503;SDS011;13410;52.114;5.718;2023-06-14T12:27:25;5.22;;;1.88;;
25503;SDS011;13410;52.114;5.718;2023-06-14T12:30:00;3.75;;;1.90;;
25503;SDS011;13410;52.114;5.718;2023-06-14T12:32:27;2.60;;;1.70;;
25503;SDS011;13410;52.114;5.718;2023-06-14T12:34:53;5.82;;;1.80;;
25503;SDS011;13410;52.114;5.718;2023-06-14T12:37:19;2.53;;;1.80;;
25503;SDS011;13410;52.114;5.718;2023-06-14T12:39:45;5.97;;;1.63;;
25503;SDS011;13410;52.114;5.718;2023-06-14T12:42:10;9.80;;;1.90;;
25503;SDS011;13410;52.114;5.718;2023-06-14T12:44:38;5.20;;;2.05;;
25503;SDS011;13410;52.114;5.718;2023-06-14T12:47:08;4.72;;;1.75;;
25503;SDS011;13410;52.114;5.718;2023-06-14T12:49:34;7.90;;;2.03;;
25503;SDS011;13410;52.114;5.718;2023-06-14T12:52:00;5.43;;;1.80;;
25503;SDS011;13410;52.114;5.718;2023-06-14T12:54:25;7.72;;;1.75;;
25503;SDS011;13410;52.114;5.718;2023-06-14T12:56:51;3.08;;;1.60;;
25503;SDS011;13410;52.114;5.718;2023-06-14T12:59:18;3.33;;;1.58;;
25503;SDS011;13410;52.114;5.718;2023-06-14T13:01:43;5.78;;;1.65;;
25503;SDS011;13410;52.114;5.718;2023-06-14T13:04:09;2.72;;;1.42;;
25503;SDS011;13410;52.114;5.718;2023-06-14T13:06:35;4.85;;;1.58;;
25503;SDS011;13410;52.114;5.718;2023-06-14T13:09:01;4.65;;;1.70;;
25503;SDS011;13410;52.114;5.718;2023-06-14T13:11:28;5.93;;;1.83;;
25503;SDS011;13410;52.114;5.718;2023-06-14T13:13:54;4.30;;;1.75;;
25503;SDS011;13410;52.114;5.718;2023-06-14T13:16:20;3.60;;;1.73;;
25503;SDS011;13410;52.114;5.718;2023-06-14T13:18:45;9.80;;;1.80;;
25503;SDS011;13410;52.114;5.718;2023-06-14T13:21:11;2.58;;;1.70;;
25503;SDS011;13410;52.114;5.718;2023-06-14T13:23:37;3.80;;;1.70;;
25503;SDS011;13410;52.114;5.718;2023-06-14T13:26:02;6.15;;;1.67;;
25503;SDS011;13410;52.114;5.718;2023-06-14T13:28:28;4.93;;;1.67;;
25503;SDS011;13410;52.114;5.718;2023-06-14T13:30:54;2.10;;;1.45;;
25503;SDS011;13410;52.114;5.718;2023-06-14T13:33:20;4.07;;;1.40;;
25503;SDS011;13410;52.114;5.718;2023-06-14T13:35:46;6.35;;;1.65;;
25503;SDS011;13410;52.114;5.718;2023-06-14T13:38:13;2.17;;;1.40;;
25503;SDS011;13410;52.114;5.718;2023-06-14T13:40:40;15.02;;;3.05;;
25503;SDS011;13410;52.114;5.718;2023-06-14T13:43:06;1.67;;;1.23;;
25503;SDS011;13410;52.114;5.718;2023-06-14T13:45:31;7.65;;;1.60;;
25503;SDS011;13410;52.114;5.718;2023-06-14T13:47:57;5.13;;;1.23;;
25503;SDS011;13410;52.114;5.718;2023-06-14T13:50:23;3.03;;;1.35;;
25503;SDS011;13410;52.114;5.718;2023-06-14T13:52:48;3.88;;;1.30;;
25503;SDS011;13410;52.114;5.718;2023-06-14T13:55:14;2.40;;;1.30;;
25503;SDS011;13410;52.114;5.718;2023-06-14T13:57:39;4.65;;;1.40;;
25503;SDS011;13410;52.114;5.718;2023-06-14T14:00:05;4.00;;;1.60;;
25503;SDS011;13410;52.114;5.718;2023-06-14T14:02:31;3.83;;;1.40;;
25503;SDS011;13410;52.114;5.718;2023-06-14T14:04:57;2.25;;;1.40;;
25503;SDS011;13410;52.114;5.718;2023-06-14T14:07:22;3.17;;;1.23;;
25503;SDS011;13410;52.114;5.718;2023-06-14T14:09:48;4.80;;;1.33;;
25503;SDS011;13410;52.114;5.718;2023-06-14T14:12:14;4.55;;;1.40;;
25503;SDS011;13410;52.114;5.718;2023-06-14T14:14:40;4.30;;;1.30;;
25503;SDS011;13410;52.114;5.718;2023-06-14T14:17:05;5.10;;;1.35;;
25503;SDS011;13410;52.114;5.718;2023-06-14T14:19:31;6.45;;;1.63;;
25503;SDS011;13410;52.114;5.718;2023-06-14T14:22:03;2.10;;;1.10;;
25503;SDS011;13410;52.114;5.718;2023-06-14T14:24:31;3.28;;;1.40;;
25503;SDS011;13410;52.114;5.718;2023-06-14T14:26:57;3.08;;;1.30;;
25503;SDS011;13410;52.114;5.718;2023-06-14T14:29:28;2.75;;;1.30;;
25503;SDS011;13410;52.114;5.718;2023-06-14T14:31:56;2.53;;;1.33;;
25503;SDS011;13410;52.114;5.718;2023-06-14T14:34:23;4.88;;;1.40;;
25503;SDS011;13410;52.114;5.718;2023-06-14T14:36:54;3.95;;;1.23;;
25503;SDS011;13410;52.114;5.718;2023-06-14T14:39:48;3.35;;;1.25;;
25503;SDS011;13410;52.114;5.718;2023-06-14T14:43:07;2.00;;;1.55;;
25503;SDS011;13410;52.114;5.718;2023-06-14T14:49:41;3.42;;;1.25;;
25503;SDS011;13410;52.114;5.718;2023-06-14T14:52:10;2.33;;;1.30;;
25503;SDS011;13410;52.114;5.718;2023-06-14T14:54:50;3.72;;;1.30;;
25503;SDS011;13410;52.114;5.718;2023-06-14T14:57:26;1.90;;;1.30;;
25503;SDS011;13410;52.114;5.718;2023-06-14T15:00:11;3.05;;;1.40;;
25503;SDS011;13410;52.114;5.718;2023-06-14T15:02:37;5.00;;;1.60;;
25503;SDS011;13410;52.114;5.718;2023-06-14T15:05:05;2.90;;;1.20;;
25503;SDS011;13410;52.114;5.718;2023-06-14T15:07:33;3.53;;;1.70;;
25503;SDS011;13410;52.114;5.718;2023-06-14T15:10:01;4.75;;;1.33;;
25503;SDS011;13410;52.114;5.718;2023-06-14T15:12:27;5.10;;;1.30;;
25503;SDS011;13410;52.114;5.718;2023-06-14T15:14:53;2.83;;;1.30;;